Pagrindinis puslapis
METAR-TAF:

METAR-TAF

Oro uostai :

Fudžou, Kinija

platuma: 26-05N, ilguma: 119-17E, Aukštis: 85 m

Dabartinis oras

Ataskaita buvo paskelbta 30 minutes, ne 18:00 UTC
Vėjas 4 kt iš Šiaurės Vakarų, svyruoja nuo Vakarų ir Šiaurės
Temperatūra 7°C
Drėgmė 66%
Slėgis 1031 hPa
Matomumas 10 km arba daugiau
nėra debesų žemiau 1500 m ir nėra kamuolinių lietaus debesų

METAR: ZSFZ 171800Z 32002MPS 280V350 CAVOK 07/01 Q1031 NOSIG

Laikas: 02:30 (18:30 UTC)

Prognozė

Ataskaita buvo paskelbta 3 valandos ir 18 minutes, ne 15:12 UTC
Prognozė galioja nuo 17 metu 18 UTC su 18 metu 18 UTC
Vėjas 8 kt iš Šiaurės Rytų
Matomumas: 6000 m
Mažai debesys ne aukštis 2000 ft

TAF: ZSFZ 171512Z 1718/1818 05004MPS 6000 FEW020 TX13/1806Z TN06/1721Z

Orai ataskaitas ir orų prognozės (METAR, TAF).

turimą stotys yra geltonos ir raudonos taškus žemėlapyje.

Perkelti pele per norėdami pamatyti stoties vardą.

Tada spustelėkite, norėdami matyti oro stebėjimo ir prognozės.

Norėdami pakeisti žemėlapį: spustelėkite ant žalios mygtukų su juodo kryžiaus žemyn,; žalią mygtuką su brūkšneliu, jei norite nutolinti; arba žalių rodyklių gretimoms žemėlapius.


METAR-TAF: